createdAt,value
2019-02-21T00:01:07.915Z,6.10
2019-02-21T00:03:36.961Z,7.10
2019-02-21T00:06:05.780Z,6.07
2019-02-21T00:08:34.649Z,7.17
2019-02-21T00:11:03.510Z,7.37
2019-02-21T00:13:32.348Z,7.03
2019-02-21T00:16:01.197Z,7.40
2019-02-21T00:18:30.063Z,10.03
2019-02-21T00:20:58.878Z,8.57
2019-02-21T00:23:27.755Z,8.03
2019-02-21T00:25:56.615Z,7.53
2019-02-21T00:28:25.439Z,8.53
2019-02-21T00:30:54.298Z,8.63
2019-02-21T00:33:23.156Z,8.83
2019-02-21T00:35:51.987Z,7.47
2019-02-21T00:38:20.855Z,9.33
2019-02-21T00:40:49.720Z,7.97
2019-02-21T00:43:18.542Z,7.57
2019-02-21T00:45:47.406Z,8.30
2019-02-21T00:48:16.271Z,9.80
2019-02-21T00:50:45.108Z,10.07
2019-02-21T00:53:13.966Z,11.00
2019-02-21T00:55:42.826Z,12.20
2019-02-21T00:58:11.655Z,7.53
2019-02-21T01:00:46.629Z,9.47
2019-02-21T01:03:11.174Z,11.33
2019-02-21T01:05:40.067Z,9.43
2019-02-21T01:08:09.267Z,9.13
2019-02-21T01:10:38.134Z,9.37
2019-02-21T01:13:07.047Z,11.27
2019-02-21T01:15:35.939Z,9.53
2019-02-21T01:18:04.830Z,10.13
2019-02-21T01:20:33.724Z,10.97
2019-02-21T01:23:02.817Z,11.10
2019-02-21T01:25:31.708Z,10.93
2019-02-21T01:28:00.572Z,9.40
2019-02-21T01:30:29.462Z,11.67
2019-02-21T01:33:00.240Z,12.03
2019-02-21T01:35:28.912Z,9.63
2019-02-21T01:37:57.775Z,9.43
2019-02-21T01:40:26.693Z,9.47
2019-02-21T01:42:55.588Z,12.17
2019-02-21T01:45:24.475Z,10.33
2019-02-21T01:47:53.338Z,12.00
2019-02-21T01:50:22.231Z,12.13
2019-02-21T01:52:51.149Z,13.03
2019-02-21T01:55:20.038Z,18.10
2019-02-21T01:57:48.935Z,11.17
2019-02-21T02:00:17.823Z,15.07
2019-02-21T02:02:48.592Z,12.87
2019-02-21T02:05:17.243Z,13.53
2019-02-21T02:07:46.137Z,14.40
2019-02-21T02:10:15.026Z,17.40
2019-02-21T02:12:43.917Z,15.00
2019-02-21T02:15:12.808Z,12.40
2019-02-21T02:17:41.702Z,15.83
2019-02-21T02:20:10.590Z,12.53
2019-02-21T02:22:39.481Z,10.47
2019-02-21T02:25:08.348Z,11.50
2019-02-21T02:27:37.263Z,12.90
2019-02-21T02:30:07.812Z,11.20
2019-02-21T02:32:36.788Z,14.17
2019-02-21T02:35:06.812Z,11.10
2019-02-21T02:37:35.697Z,11.60
2019-02-21T02:40:04.997Z,10.97
2019-02-21T02:42:33.859Z,10.70
2019-02-21T02:45:02.752Z,12.40
2019-02-21T02:47:31.644Z,11.00
2019-02-21T02:50:00.604Z,12.40
2019-02-21T02:52:29.839Z,12.00
2019-02-21T02:54:58.754Z,13.40
2019-02-21T02:57:27.620Z,10.60
2019-02-21T02:59:56.542Z,12.00
2019-02-21T03:02:25.428Z,11.53
2019-02-21T03:04:54.321Z,13.10
2019-02-21T03:07:24.179Z,10.53
2019-02-21T03:09:53.122Z,11.33
2019-02-21T03:12:22.016Z,10.90
2019-02-21T03:14:50.907Z,11.03
2019-02-21T03:17:19.797Z,13.30
2019-02-21T03:19:48.694Z,12.03
2019-02-21T03:22:17.580Z,12.70
2019-02-21T03:24:46.472Z,15.33
2019-02-21T03:27:15.363Z,11.47
2019-02-21T03:29:44.254Z,13.83
2019-02-21T03:32:13.131Z,12.43
2019-02-21T03:34:42.037Z,13.03
2019-02-21T03:37:10.946Z,12.50
2019-02-21T03:39:39.920Z,11.63
2019-02-21T03:42:09.194Z,13.37
2019-02-21T03:44:38.154Z,10.60
2019-02-21T03:47:07.107Z,13.90
2019-02-21T03:49:35.998Z,14.50
2019-02-21T03:52:04.891Z,13.43
2019-02-21T03:54:33.781Z,13.33
2019-02-21T03:57:02.671Z,12.43
2019-02-21T03:59:31.562Z,12.03
2019-02-21T04:02:05.154Z,13.27
2019-02-21T04:04:30.984Z,14.73
2019-02-21T04:06:59.878Z,11.40
2019-02-21T04:09:28.765Z,12.00
2019-02-21T04:16:09.447Z,10.90
2019-02-21T04:18:38.566Z,10.97
2019-02-21T04:21:07.451Z,12.33
2019-02-21T04:23:36.442Z,10.33
2019-02-21T04:26:05.336Z,12.20
2019-02-21T04:28:34.326Z,11.33
2019-02-21T04:31:03.197Z,11.67
2019-02-21T04:33:34.289Z,11.73
2019-02-21T04:36:02.638Z,14.67
2019-02-21T04:38:31.530Z,12.93
2019-02-21T04:41:00.524Z,14.40
2019-02-21T04:43:29.415Z,13.77
2019-02-21T04:45:58.311Z,14.10
2019-02-21T04:48:28.271Z,15.03
2019-02-21T04:50:57.215Z,14.00
2019-02-21T04:53:26.108Z,15.97
2019-02-21T04:55:54.999Z,15.67
2019-02-21T04:58:23.888Z,16.67
2019-02-21T05:00:52.781Z,13.07
2019-02-21T05:03:21.652Z,13.00
2019-02-21T05:05:50.536Z,13.67
2019-02-21T05:08:19.453Z,13.43
2019-02-21T05:10:48.345Z,16.70
2019-02-21T05:13:17.240Z,13.37
2019-02-21T05:15:46.126Z,17.40
2019-02-21T05:18:15.020Z,14.63
2019-02-21T05:20:43.909Z,12.73
2019-02-21T05:23:12.800Z,15.30
2019-02-21T05:25:41.692Z,13.80
2019-02-21T05:28:28.715Z,12.73
2019-02-21T05:30:59.238Z,14.10
2019-02-21T05:33:38.777Z,14.43
2019-02-21T05:36:11.970Z,15.13
2019-02-21T05:38:58.883Z,19.00
2019-02-21T05:41:38.425Z,17.50
2019-02-21T05:44:08.928Z,16.30
2019-02-21T05:46:42.557Z,17.00
2019-02-21T05:49:15.725Z,19.07
2019-02-21T05:51:46.250Z,16.53
2019-02-21T05:54:16.810Z,18.67
2019-02-21T05:56:53.513Z,17.13
2019-02-21T05:59:35.995Z,17.30
2019-02-21T06:02:09.468Z,16.03
2019-02-21T06:04:40.024Z,18.43
2019-02-21T06:07:28.676Z,20.47
2019-02-21T06:09:59.307Z,15.87
2019-02-21T06:12:33.523Z,20.13
2019-02-21T06:15:04.768Z,18.70
2019-02-21T06:17:37.939Z,15.57
2019-02-21T06:20:27.333Z,15.90
2019-02-21T06:22:57.879Z,15.83
2019-02-21T06:25:34.332Z,16.30
2019-02-21T06:28:13.873Z,16.90
2019-02-21T06:30:50.247Z,20.10
2019-02-21T06:33:19.132Z,18.73
2019-02-21T06:35:48.001Z,17.10
2019-02-21T06:38:22.983Z,17.73
2019-02-21T06:40:51.856Z,17.70
2019-02-21T06:43:20.688Z,17.90
2019-02-21T06:45:49.547Z,16.10
2019-02-21T06:48:18.423Z,20.20
2019-02-21T06:50:47.794Z,18.13
2019-02-21T06:53:16.726Z,18.50
2019-02-21T06:55:45.593Z,20.37
2019-02-21T06:58:14.418Z,18.87
2019-02-21T07:00:46.106Z,21.93
2019-02-21T07:03:16.082Z,19.50
2019-02-21T07:05:44.670Z,25.13
2019-02-21T07:08:13.536Z,20.80
2019-02-21T07:10:42.368Z,20.40
2019-02-21T07:13:11.239Z,21.33
2019-02-21T07:15:40.107Z,22.60
2019-02-21T07:18:11.100Z,22.70
2019-02-21T07:20:39.873Z,24.13
2019-02-21T07:23:11.231Z,21.47
2019-02-21T07:25:46.755Z,25.10
2019-02-21T07:28:16.277Z,23.83
2019-02-21T07:30:45.283Z,21.07
2019-02-21T07:33:14.148Z,20.10
2019-02-21T07:35:43.020Z,21.97
2019-02-21T07:38:11.846Z,22.00
2019-02-21T07:40:40.718Z,23.63
2019-02-21T07:43:09.651Z,24.07
2019-02-21T07:45:38.467Z,20.67
2019-02-21T07:48:07.339Z,21.03
2019-02-21T07:50:36.217Z,20.60
2019-02-21T07:53:05.043Z,19.17
2019-02-21T07:55:33.911Z,20.33
2019-02-21T07:58:04.000Z,21.23
2019-02-21T08:00:33.106Z,22.30
2019-02-21T08:03:01.975Z,20.63
2019-02-21T08:05:30.858Z,25.00
2019-02-21T08:07:59.683Z,19.10
2019-02-21T08:10:33.465Z,23.03
2019-02-21T08:12:59.054Z,25.80
2019-02-21T08:15:27.977Z,31.10
2019-02-21T08:17:56.875Z,26.90
2019-02-21T08:20:33.465Z,26.73
2019-02-21T08:22:56.213Z,28.23
2019-02-21T08:25:25.083Z,32.40
2019-02-21T08:27:53.947Z,40.20
2019-02-21T08:30:25.338Z,35.87
2019-02-21T08:33:12.243Z,32.07
2019-02-21T08:35:41.111Z,27.00
2019-02-21T08:38:12.038Z,22.70
2019-02-21T08:40:40.467Z,21.77
2019-02-21T08:43:09.339Z,20.83
2019-02-21T08:45:38.166Z,24.07
2019-02-21T08:48:07.036Z,21.63
2019-02-21T08:50:35.903Z,19.17
2019-02-21T08:53:04.766Z,14.80
2019-02-21T08:55:33.619Z,17.67
2019-02-21T08:58:02.488Z,19.27
2019-02-21T09:00:31.861Z,16.53
2019-02-21T09:03:00.984Z,17.77
2019-02-21T09:05:29.851Z,16.10
2019-02-21T09:07:58.714Z,18.50
2019-02-21T09:10:27.890Z,18.40
2019-02-21T09:12:57.051Z,19.77
2019-02-21T09:15:25.886Z,17.93
2019-02-21T09:17:54.751Z,18.67
2019-02-21T09:20:23.620Z,17.47
2019-02-21T09:22:52.447Z,19.87
2019-02-21T09:25:21.319Z,18.70
2019-02-21T09:27:50.190Z,18.53
2019-02-21T09:30:19.525Z,15.80
2019-02-21T09:32:48.391Z,16.67
2019-02-21T09:35:17.269Z,17.47
2019-02-21T09:37:46.102Z,17.87
2019-02-21T09:40:20.990Z,15.97
2019-02-21T09:42:49.867Z,15.87
2019-02-21T09:45:19.303Z,16.30
2019-02-21T09:47:48.177Z,16.30
2019-02-21T09:50:17.042Z,17.03
2019-02-21T09:52:45.870Z,19.07
2019-02-21T09:55:20.792Z,17.87
2019-02-21T09:57:49.659Z,17.63
2019-02-21T10:00:20.304Z,17.40
2019-02-21T10:02:49.180Z,16.93
2019-02-21T10:05:18.065Z,16.83
2019-02-21T10:07:46.887Z,17.27
2019-02-21T10:10:19.663Z,19.57
2019-02-21T10:12:48.526Z,19.30
2019-02-21T10:15:17.354Z,17.60
2019-02-21T10:17:46.242Z,18.90
2019-02-21T10:20:22.036Z,20.77
2019-02-21T10:22:50.906Z,17.80
2019-02-21T10:25:23.278Z,18.03
2019-02-21T10:27:52.303Z,20.47
2019-02-21T10:30:23.193Z,18.60
2019-02-21T10:32:52.059Z,18.13
2019-02-21T10:35:20.890Z,18.20
2019-02-21T10:37:49.792Z,16.30
2019-02-21T10:40:18.633Z,19.63
2019-02-21T10:42:54.434Z,14.53
2019-02-21T10:45:23.836Z,13.40
2019-02-21T10:47:52.663Z,15.67
2019-02-21T10:50:21.934Z,16.37
2019-02-21T10:52:50.811Z,16.27
2019-02-21T10:55:19.851Z,13.30
2019-02-21T10:57:48.723Z,14.33
2019-02-21T11:00:26.590Z,14.63
2019-02-21T11:02:55.463Z,12.70
2019-02-21T11:05:24.341Z,13.93
2019-02-21T11:07:53.169Z,13.07
2019-02-21T11:10:24.156Z,12.43
2019-02-21T11:12:53.012Z,12.73
2019-02-21T11:15:23.843Z,13.77
2019-02-21T11:17:52.716Z,14.00
2019-02-21T11:20:22.287Z,15.17
2019-02-21T11:22:51.118Z,12.53
2019-02-21T11:25:19.991Z,12.10
2019-02-21T11:27:48.863Z,13.43
2019-02-21T11:30:19.220Z,14.90
2019-02-21T11:32:48.081Z,15.47
2019-02-21T11:35:17.236Z,15.27
2019-02-21T11:37:47.346Z,13.77
2019-02-21T11:40:17.745Z,11.43
2019-02-21T11:42:46.823Z,13.37
2019-02-21T11:45:16.938Z,13.40
2019-02-21T11:47:47.337Z,14.07
2019-02-21T11:50:17.698Z,13.70
2019-02-21T11:52:46.544Z,19.23
2019-02-21T11:55:18.039Z,15.23
2019-02-21T11:57:46.920Z,15.80
2019-02-21T12:00:20.895Z,16.40
2019-02-21T12:02:49.766Z,14.33
2019-02-21T12:05:30.227Z,15.77
2019-02-21T12:07:49.143Z,17.80
2019-02-21T12:10:18.130Z,15.87
2019-02-21T12:12:46.955Z,16.43
2019-02-21T12:15:16.931Z,13.77
2019-02-21T12:17:45.867Z,15.73
2019-02-21T12:20:19.310Z,15.67
2019-02-21T12:22:48.479Z,13.30
2019-02-21T12:25:19.074Z,15.27
2019-02-21T12:27:47.899Z,15.50
2019-02-21T12:30:19.136Z,15.33
2019-02-21T12:32:48.032Z,15.03
2019-02-21T12:35:16.868Z,13.87
2019-02-21T12:37:45.747Z,12.40
2019-02-21T12:40:22.555Z,8.17
2019-02-21T12:42:51.412Z,8.63
2019-02-21T12:45:24.966Z,8.47
2019-02-21T12:47:54.291Z,11.20
2019-02-21T12:50:23.319Z,8.80
2019-02-21T12:52:52.127Z,9.73
2019-02-21T12:55:27.571Z,8.10
2019-02-21T12:57:51.536Z,10.20
2019-02-21T13:00:21.563Z,8.80
2019-02-21T13:02:50.423Z,10.23
2019-02-21T13:05:19.301Z,10.77
2019-02-21T13:07:48.119Z,9.87
2019-02-21T13:10:21.891Z,10.90
2019-02-21T13:12:50.767Z,11.33
2019-02-21T13:15:19.593Z,10.53
2019-02-21T13:17:50.846Z,12.50
2019-02-21T13:20:19.067Z,10.07
2019-02-21T13:22:47.950Z,12.97
2019-02-21T13:25:18.157Z,8.23
2019-02-21T13:27:47.026Z,10.40
2019-02-21T13:30:17.151Z,8.30
2019-02-21T13:32:46.028Z,9.80
2019-02-21T13:35:14.906Z,11.70
2019-02-21T13:37:43.748Z,9.87
2019-02-21T13:40:16.434Z,9.60
2019-02-21T13:42:45.317Z,10.67
2019-02-21T13:45:17.580Z,9.23
2019-02-21T13:47:46.052Z,10.73
2019-02-21T13:50:19.455Z,9.77
2019-02-21T13:52:48.278Z,8.90
2019-02-21T13:55:17.155Z,10.83
2019-02-21T13:57:48.631Z,11.13
2019-02-21T14:00:21.819Z,11.90
2019-02-21T14:02:54.035Z,9.63
2019-02-21T14:05:22.921Z,9.00
2019-02-21T14:07:51.775Z,12.67
2019-02-21T14:10:20.678Z,10.20
2019-02-21T14:12:49.515Z,11.53
2019-02-21T14:15:26.946Z,11.00
2019-02-21T14:17:55.952Z,12.03
2019-02-21T14:20:24.786Z,13.73
2019-02-21T14:22:53.651Z,9.50
2019-02-21T14:25:22.520Z,12.87
2019-02-21T14:27:51.361Z,12.97
2019-02-21T14:30:21.702Z,12.13
2019-02-21T14:32:59.526Z,13.20
2019-02-21T14:35:28.401Z,11.70
2019-02-21T14:37:57.511Z,10.87
2019-02-21T14:40:26.321Z,12.60
2019-02-21T14:42:55.188Z,12.13
2019-02-21T14:45:26.975Z,10.77
2019-02-21T14:47:55.798Z,13.53
2019-02-21T14:50:24.685Z,18.00
2019-02-21T14:52:53.571Z,10.67
2019-02-21T14:55:22.392Z,10.47
2019-02-21T14:57:51.306Z,11.53
2019-02-21T15:00:24.333Z,12.77
2019-02-21T15:02:53.232Z,12.33
2019-02-21T15:05:27.923Z,13.97
2019-02-21T15:07:56.797Z,18.33
2019-02-21T15:10:25.681Z,13.47
2019-02-21T15:12:54.563Z,15.90
2019-02-21T15:15:25.826Z,12.00
2019-02-21T15:18:06.649Z,15.03
2019-02-21T15:20:35.848Z,12.90
2019-02-21T15:22:55.871Z,12.67
2019-02-21T15:25:24.744Z,14.27
2019-02-21T15:27:53.601Z,11.50
2019-02-21T15:30:24.495Z,14.93
2019-02-21T15:32:53.375Z,11.60
2019-02-21T15:35:22.248Z,10.37
2019-02-21T15:37:51.149Z,11.60
2019-02-21T15:40:19.992Z,12.27
2019-02-21T15:42:48.886Z,10.87
2019-02-21T15:45:25.365Z,12.00
2019-02-21T15:47:54.241Z,9.23
2019-02-21T15:50:23.175Z,13.27
2019-02-21T15:52:54.031Z,11.73
2019-02-21T15:55:23.264Z,17.43
2019-02-21T15:58:03.312Z,9.70
2019-02-21T16:00:23.940Z,11.43
2019-02-21T16:02:52.924Z,17.67
2019-02-21T16:05:21.771Z,13.23
2019-02-21T16:07:50.685Z,12.03
2019-02-21T16:10:22.463Z,11.13
2019-02-21T16:12:51.617Z,11.37
2019-02-21T16:15:20.612Z,12.70
2019-02-21T16:17:49.432Z,11.20
2019-02-21T16:20:19.775Z,10.43
2019-02-21T16:22:48.636Z,12.47
2019-02-21T16:25:26.212Z,10.63
2019-02-21T16:27:55.598Z,15.13
2019-02-21T16:30:24.843Z,11.13
2019-02-21T16:32:53.675Z,11.90
2019-02-21T16:35:22.572Z,11.60
2019-02-21T16:37:51.409Z,12.20
2019-02-21T16:40:20.698Z,13.27
2019-02-21T16:42:49.533Z,11.53
2019-02-21T16:45:20.029Z,13.27
2019-02-21T16:47:49.263Z,13.77
2019-02-21T16:50:28.838Z,13.90
2019-02-21T16:52:48.663Z,12.47
2019-02-21T16:55:19.612Z,16.75
2019-02-21T16:57:48.517Z,17.87
2019-02-21T17:00:19.063Z,13.17
2019-02-21T17:02:47.944Z,14.37
2019-02-21T17:05:16.995Z,14.23
2019-02-21T17:07:45.979Z,15.20
2019-02-21T17:10:16.133Z,14.37
2019-02-21T17:12:45.064Z,15.97
2019-02-21T17:15:16.888Z,13.73
2019-02-21T17:17:45.806Z,15.07
2019-02-21T17:20:22.460Z,15.57
2019-02-21T17:22:51.307Z,17.53
2019-02-21T17:25:20.232Z,14.00
2019-02-21T17:27:50.811Z,18.80
2019-02-21T17:30:20.128Z,15.33
2019-02-21T17:32:48.966Z,19.97
2019-02-21T17:35:17.824Z,18.43
2019-02-21T17:37:46.650Z,19.27
2019-02-21T17:40:21.149Z,14.70
2019-02-21T17:42:50.007Z,15.00
2019-02-21T17:45:18.883Z,14.47
2019-02-21T17:47:47.743Z,16.70
2019-02-21T17:50:20.271Z,14.77
2019-02-21T17:52:49.159Z,14.37
2019-02-21T17:55:18.496Z,15.60
2019-02-21T17:57:47.462Z,18.67
2019-02-21T18:00:30.865Z,14.53
2019-02-21T18:02:59.754Z,17.53
2019-02-21T18:05:28.608Z,15.40
2019-02-21T18:07:57.500Z,18.30
2019-02-21T18:10:26.351Z,19.20
2019-02-21T18:12:55.243Z,17.17
2019-02-21T18:15:25.821Z,14.57
2019-02-21T18:17:54.708Z,15.17
2019-02-21T18:20:23.763Z,12.93
2019-02-21T18:22:52.606Z,13.70
2019-02-21T18:25:45.104Z,14.87
2019-02-21T18:28:13.983Z,14.47
2019-02-21T18:30:42.842Z,17.40
2019-02-21T18:33:14.345Z,17.53
2019-02-21T18:35:43.196Z,15.87
2019-02-21T18:38:12.085Z,21.47
2019-02-21T18:40:40.928Z,15.50
2019-02-21T18:43:10.221Z,17.43
2019-02-21T18:45:39.109Z,16.63
2019-02-21T18:48:08.008Z,13.47
2019-02-21T18:50:38.548Z,14.80
2019-02-21T18:53:07.384Z,15.67
2019-02-21T18:55:36.236Z,15.77
2019-02-21T18:58:05.134Z,17.47
2019-02-21T19:00:33.975Z,14.30
2019-02-21T19:03:02.856Z,17.53
2019-02-21T19:05:35.880Z,15.13
2019-02-21T19:08:05.418Z,16.87
2019-02-21T19:10:32.815Z,14.90
2019-02-21T19:13:01.655Z,15.57
2019-02-21T19:15:30.731Z,15.80
2019-02-21T19:17:59.608Z,14.53
2019-02-21T19:20:28.449Z,14.20
2019-02-21T19:22:57.333Z,15.10
2019-02-21T19:25:26.237Z,15.60
2019-02-21T19:27:55.050Z,14.83
2019-02-21T19:30:33.005Z,13.87
2019-02-21T19:33:01.814Z,18.33
2019-02-21T19:35:30.685Z,19.33
2019-02-21T19:38:09.913Z,18.37
2019-02-21T19:40:30.035Z,14.13
2019-02-21T19:42:58.912Z,16.20
2019-02-21T19:45:27.798Z,19.50
2019-02-21T19:47:56.611Z,19.40
2019-02-21T19:50:26.783Z,15.23
2019-02-21T19:52:55.621Z,13.47
2019-02-21T19:55:24.523Z,16.57
2019-02-21T19:57:53.383Z,18.90
2019-02-21T20:00:25.836Z,15.90
2019-02-21T20:02:55.290Z,17.63
2019-02-21T20:05:24.332Z,19.63
2019-02-21T20:07:53.184Z,17.93
2019-02-21T20:10:22.286Z,16.37
2019-02-21T20:12:51.792Z,18.20
2019-02-21T20:15:20.682Z,17.43
2019-02-21T20:17:49.577Z,16.37
2019-02-21T20:20:20.743Z,17.40
2019-02-21T20:22:49.583Z,19.73
2019-02-21T20:25:28.908Z,16.13
2019-02-21T20:27:57.923Z,15.40
2019-02-21T20:30:26.891Z,19.67
2019-02-21T20:32:58.438Z,16.40
2019-02-21T20:35:39.527Z,22.23
2019-02-21T20:38:05.672Z,20.27
2019-02-21T20:40:34.784Z,17.33
2019-02-21T20:43:03.823Z,19.57
2019-02-21T20:45:32.649Z,22.83
2019-02-21T20:48:04.429Z,19.53
2019-02-21T20:50:33.524Z,25.77
2019-02-21T20:53:08.056Z,21.37
2019-02-21T20:55:43.845Z,20.90
2019-02-21T20:58:11.743Z,22.87
2019-02-21T21:00:40.988Z,23.40
2019-02-21T21:03:10.403Z,20.67
2019-02-21T21:05:40.478Z,21.77
2019-02-21T21:08:09.343Z,20.77
2019-02-21T21:10:38.239Z,20.37
2019-02-21T21:13:07.325Z,26.03
2019-02-21T21:15:36.166Z,21.03
2019-02-21T21:18:05.139Z,19.17
2019-02-21T21:20:34.083Z,21.33
2019-02-21T21:23:03.271Z,20.93
2019-02-21T21:25:32.547Z,18.57
2019-02-21T21:28:01.483Z,19.20
2019-02-21T21:30:30.320Z,17.27
2019-02-21T21:32:59.192Z,18.87
2019-02-21T21:35:28.152Z,17.47
2019-02-21T21:37:57.033Z,17.77
2019-02-21T21:40:25.863Z,16.33
2019-02-21T21:42:54.755Z,16.93
2019-02-21T21:45:23.617Z,20.67
2019-02-21T21:47:52.477Z,17.27
2019-02-21T21:50:21.412Z,20.70
2019-02-21T21:52:50.276Z,18.53
2019-02-21T21:55:19.109Z,17.60
2019-02-21T21:57:48.031Z,19.67
2019-02-21T22:00:19.539Z,20.97
2019-02-21T22:02:48.410Z,18.43
2019-02-21T22:05:17.251Z,18.27
2019-02-21T22:07:46.130Z,16.67
2019-02-21T22:10:15.887Z,18.47
2019-02-21T22:12:44.734Z,18.43
2019-02-21T22:15:21.543Z,19.93
2019-02-21T22:17:50.411Z,24.27
2019-02-21T22:20:19.276Z,18.00
2019-02-21T22:22:48.123Z,18.30
2019-02-21T22:25:16.982Z,15.37
2019-02-21T22:27:47.175Z,17.93
2019-02-21T22:30:17.779Z,17.47
2019-02-21T22:32:46.652Z,20.10
2019-02-21T22:35:15.660Z,18.53
2019-02-21T22:37:44.567Z,17.30
2019-02-21T22:40:17.741Z,18.77
2019-02-21T22:42:46.567Z,18.13
2019-02-21T22:45:15.447Z,20.07
2019-02-21T22:47:44.437Z,18.73
2019-02-21T22:50:17.382Z,19.03
2019-02-21T22:52:46.251Z,19.00
2019-02-21T22:55:15.219Z,15.23
2019-02-21T22:57:44.045Z,17.80
2019-02-21T23:00:32.250Z,18.43
2019-02-21T23:03:02.187Z,18.67
2019-02-21T23:05:50.765Z,17.23
2019-02-21T23:08:40.647Z,17.17
2019-02-21T23:11:09.648Z,16.53
2019-02-21T23:13:38.516Z,18.43
2019-02-21T23:16:07.342Z,19.50
2019-02-21T23:18:36.207Z,19.77
2019-02-21T23:21:05.070Z,19.23
2019-02-21T23:23:33.905Z,18.57
2019-02-21T23:26:02.782Z,19.17
2019-02-21T23:28:31.647Z,22.97
2019-02-21T23:31:00.479Z,18.40
2019-02-21T23:33:30.447Z,16.57
2019-02-21T23:35:59.310Z,19.03
2019-02-21T23:38:28.143Z,16.43
2019-02-21T23:40:57.010Z,18.10
2019-02-21T23:43:25.883Z,17.40
2019-02-21T23:45:54.721Z,18.50
2019-02-21T23:48:23.599Z,17.67
2019-02-21T23:50:52.471Z,22.30
2019-02-21T23:53:21.307Z,19.37
2019-02-21T23:55:50.175Z,19.60
2019-02-21T23:58:19.048Z,19.93
